createdAt,value
2018-12-07T00:04:45.568Z,8.68
2018-12-07T00:10:40.570Z,9.34
2018-12-07T00:16:35.578Z,7.91
2018-12-07T00:22:30.646Z,7.1
2018-12-07T00:28:25.571Z,7
2018-12-07T00:34:20.594Z,9.48
2018-12-07T00:40:15.598Z,10.29
2018-12-07T00:46:10.589Z,7.34
2018-12-07T00:52:05.622Z,7.37
2018-12-07T00:58:00.588Z,7.98
2018-12-07T01:03:55.610Z,4.66
2018-12-07T01:09:50.585Z,4.74
2018-12-07T01:15:45.615Z,6.99
2018-12-07T01:21:40.597Z,5.57
2018-12-07T01:27:35.610Z,4.97
2018-12-07T01:33:30.626Z,16.46
2018-12-07T01:39:25.638Z,8.06
2018-12-07T01:45:20.620Z,5.83
2018-12-07T01:51:15.673Z,5.87
2018-12-07T01:57:10.638Z,7.26
2018-12-07T02:03:05.610Z,13.18
2018-12-07T02:09:00.621Z,11.53
2018-12-07T02:14:55.626Z,12.06
2018-12-07T02:20:50.627Z,12.04
2018-12-07T02:26:45.671Z,12.79
2018-12-07T02:32:40.647Z,9.18
2018-12-07T02:38:35.636Z,6.07
2018-12-07T02:44:30.622Z,4.46
2018-12-07T02:50:25.654Z,5.02
2018-12-07T02:56:20.680Z,5.5
2018-12-07T03:02:15.678Z,6.36
2018-12-07T03:08:10.685Z,5.35
2018-12-07T03:14:05.666Z,5.36
2018-12-07T03:20:00.672Z,4.54
2018-12-07T03:25:55.691Z,5.13
2018-12-07T03:31:50.677Z,5.77
2018-12-07T03:37:45.673Z,6.36
2018-12-07T03:43:40.681Z,5.86
2018-12-07T03:49:35.672Z,4.66
2018-12-07T03:55:30.671Z,5.66
2018-12-07T04:01:25.750Z,7.21
2018-12-07T04:07:20.698Z,7.44
2018-12-07T04:13:15.750Z,7.84
2018-12-07T04:19:10.745Z,8.3
2018-12-07T04:25:05.704Z,9.56
2018-12-07T04:31:00.690Z,10.05
2018-12-07T04:36:55.675Z,10.67
2018-12-07T04:42:50.727Z,7.98
2018-12-07T04:48:45.719Z,22.8
2018-12-07T04:54:40.705Z,8.56
2018-12-07T05:00:35.715Z,16.07
2018-12-07T05:06:30.711Z,9.53
2018-12-07T05:12:25.770Z,9.03
2018-12-07T05:18:20.728Z,8.87
2018-12-07T05:24:15.718Z,9.68
2018-12-07T05:30:10.726Z,8.31
2018-12-07T05:36:05.724Z,8.74
2018-12-07T05:42:00.726Z,8.67
2018-12-07T05:47:55.763Z,8.97
2018-12-07T05:53:50.726Z,9.18
2018-12-07T05:59:45.766Z,9.26
2018-12-07T06:05:41.013Z,8
2018-12-07T06:11:35.759Z,11.12
2018-12-07T06:17:30.742Z,9.37
2018-12-07T06:23:25.751Z,9.13
2018-12-07T06:29:20.746Z,9.24
2018-12-07T06:35:15.815Z,7.47
2018-12-07T06:41:10.753Z,7.98
2018-12-07T06:47:05.756Z,7.67
2018-12-07T06:53:00.743Z,8.58
2018-12-07T06:58:55.775Z,7.49
2018-12-07T07:04:50.773Z,8.07
2018-12-07T07:10:45.791Z,9.68
2018-12-07T07:16:40.774Z,11.83
2018-12-07T07:22:35.812Z,13.81
2018-12-07T07:28:30.785Z,12.52
2018-12-07T07:34:25.768Z,12.72
2018-12-07T07:40:20.827Z,12.23
2018-12-07T07:46:15.802Z,12.72
2018-12-07T07:52:10.798Z,13.55
2018-12-07T07:58:05.800Z,13.7
2018-12-07T08:04:00.842Z,20.31
2018-12-07T08:09:55.814Z,22.16
2018-12-07T08:15:50.821Z,18.37
2018-12-07T08:21:45.808Z,20.86
2018-12-07T08:27:40.806Z,24.14
2018-12-07T08:33:35.816Z,26.57
2018-12-07T08:39:30.829Z,27.44
2018-12-07T08:45:25.831Z,25.6
2018-12-07T08:51:20.822Z,28.47
2018-12-07T08:57:15.858Z,24.9
2018-12-07T09:03:10.974Z,28.35
2018-12-07T09:09:05.864Z,28.92
2018-12-07T09:15:00.913Z,26.24
2018-12-07T09:20:55.836Z,34.4
2018-12-07T09:26:50.832Z,34.44
2018-12-07T09:32:45.871Z,36.32
2018-12-07T09:38:40.854Z,30.04
2018-12-07T09:44:35.893Z,28.05
2018-12-07T09:50:30.879Z,25.67
2018-12-07T09:56:25.859Z,29.89
2018-12-07T10:02:20.858Z,26.57
2018-12-07T10:08:15.866Z,31.97
2018-12-07T10:14:10.886Z,38.53
2018-12-07T10:20:05.877Z,40.2
2018-12-07T10:26:00.920Z,42.75
2018-12-07T10:31:55.872Z,42.98
2018-12-07T10:37:50.889Z,40.07
2018-12-07T10:43:45.877Z,34.9
2018-12-07T10:49:40.904Z,34.05
2018-12-07T10:55:35.888Z,36.13
2018-12-07T11:01:30.919Z,41.02
2018-12-07T11:07:25.935Z,36.34
2018-12-07T11:13:20.967Z,41.24
2018-12-07T11:19:15.911Z,42.52
2018-12-07T11:25:10.954Z,49.73
2018-12-07T11:31:05.944Z,57.75
2018-12-07T11:37:00.918Z,41.98
2018-12-07T11:42:55.899Z,38.52
2018-12-07T11:48:51.018Z,40.2
2018-12-07T11:54:45.973Z,38.79
2018-12-07T12:00:40.922Z,46.6
2018-12-07T12:06:35.937Z,49.07
2018-12-07T12:12:30.936Z,46.79
2018-12-07T12:18:25.925Z,48.16
2018-12-07T12:24:20.932Z,48.36
2018-12-07T12:30:15.961Z,44.39
2018-12-07T12:36:16.916Z,50.83
2018-12-07T12:42:05.969Z,51.69
2018-12-07T12:48:02.598Z,45.95
2018-12-07T12:53:55.969Z,41.3
2018-12-07T12:59:50.976Z,43.6
2018-12-07T13:05:45.947Z,41.62
2018-12-07T13:11:40.985Z,38.08
2018-12-07T13:17:35.963Z,32.67
2018-12-07T13:23:30.967Z,32.39
2018-12-07T13:29:25.989Z,40.39
2018-12-07T13:35:21.313Z,44.13
2018-12-07T13:41:16.019Z,46.59
2018-12-07T13:47:10.998Z,43.87
2018-12-07T13:53:06.175Z,45.21
2018-12-07T13:59:01.156Z,53.05
2018-12-07T14:04:56.011Z,57.45
2018-12-07T14:10:51.055Z,54.84
2018-12-07T14:16:46.132Z,54.95
2018-12-07T14:22:41.020Z,55.23
2018-12-07T14:28:36.050Z,55.33
2018-12-07T14:34:31.082Z,49.15
2018-12-07T14:40:26.121Z,57.62
2018-12-07T14:46:21.167Z,49.8
2018-12-07T14:52:16.127Z,35.71
2018-12-07T14:58:11.133Z,22.35
2018-12-07T15:04:06.163Z,29.74
2018-12-07T15:10:01.230Z,28.19
2018-12-07T15:15:56.083Z,31.38
2018-12-07T15:21:51.248Z,34.79
2018-12-07T15:27:46.147Z,35.59
2018-12-07T15:33:41.117Z,40.34
2018-12-07T15:39:36.097Z,40.36
2018-12-07T15:45:31.069Z,38
2018-12-07T15:51:26.169Z,34.59
2018-12-07T15:57:21.104Z,36.46
2018-12-07T16:03:16.220Z,38
2018-12-07T16:09:11.064Z,38.82
2018-12-07T16:15:06.100Z,35.4
2018-12-07T16:21:01.066Z,38.01
2018-12-07T16:26:56.075Z,34.11
2018-12-07T16:32:51.155Z,33.7
2018-12-07T16:38:46.113Z,31.76
2018-12-07T16:44:41.211Z,31.99
2018-12-07T16:50:36.071Z,28.48
2018-12-07T16:56:31.421Z,35.15
2018-12-07T17:02:26.275Z,31.08
2018-12-07T17:08:21.360Z,41.49
2018-12-07T17:14:16.091Z,46.76
2018-12-07T17:20:11.235Z,46.85
2018-12-07T17:26:06.347Z,45.21
2018-12-07T17:32:01.171Z,46.23
2018-12-07T17:37:56.388Z,46.97
2018-12-07T17:43:51.230Z,43.55
2018-12-07T17:49:46.339Z,47.04
2018-12-07T17:55:41.294Z,44.37
2018-12-07T18:01:36.167Z,45.89
2018-12-07T18:07:31.142Z,40.96
2018-12-07T18:13:26.145Z,40.44
2018-12-07T18:19:21.268Z,41.33
2018-12-07T18:25:16.191Z,43.1
2018-12-07T18:31:11.338Z,41.14
2018-12-07T18:37:06.172Z,35.39
2018-12-07T18:43:01.377Z,37.3
2018-12-07T18:48:56.237Z,42.75
2018-12-07T18:54:51.178Z,50.85
2018-12-07T19:00:46.228Z,42.9
2018-12-07T19:06:41.254Z,42.32
2018-12-07T19:12:36.234Z,43.75
2018-12-07T19:18:31.183Z,42.47
2018-12-07T19:24:26.237Z,33.08
2018-12-07T19:30:21.529Z,35.73
2018-12-07T19:36:16.454Z,34.9
2018-12-07T19:42:11.174Z,34.75
2018-12-07T19:48:06.432Z,39.98
2018-12-07T19:54:01.169Z,33.43
2018-12-07T19:59:56.340Z,50.36
2018-12-07T20:05:51.172Z,55.76
2018-12-07T20:11:46.460Z,49.49
2018-12-07T20:17:41.446Z,55.06
2018-12-07T20:23:36.569Z,48.29
2018-12-07T20:29:31.398Z,46.03
2018-12-07T20:35:26.335Z,47.93
2018-12-07T20:41:21.244Z,50.14
2018-12-07T20:47:24.502Z,47.81
2018-12-07T20:53:11.216Z,43.27
2018-12-07T20:59:06.293Z,45.86
2018-12-07T21:05:01.364Z,43.51
2018-12-07T21:10:56.261Z,38.73
2018-12-07T21:16:51.441Z,36.07
2018-12-07T21:22:46.288Z,39.45
2018-12-07T21:28:41.285Z,32.77
2018-12-07T21:34:36.607Z,27.45
2018-12-07T21:40:31.358Z,27.38
2018-12-07T21:46:26.271Z,29.57
2018-12-07T21:52:21.487Z,28.07
2018-12-07T21:58:16.331Z,31.25
2018-12-07T22:04:11.562Z,27.95
2018-12-07T22:10:06.335Z,23.49
2018-12-07T22:16:01.244Z,23.39
2018-12-07T22:21:56.369Z,32.73
2018-12-07T22:27:51.288Z,31.25
2018-12-07T22:33:46.310Z,29.82
2018-12-07T22:39:41.325Z,29.9
2018-12-07T22:45:36.478Z,26.35
2018-12-07T22:51:31.255Z,25.15
2018-12-07T22:57:26.325Z,26.16
2018-12-07T23:03:21.285Z,24.98
2018-12-07T23:09:16.303Z,22.8
2018-12-07T23:15:11.338Z,22.52
2018-12-07T23:21:06.282Z,20.75
2018-12-07T23:27:01.266Z,21.45
2018-12-07T23:32:56.300Z,20.36
2018-12-07T23:38:51.280Z,20.38
2018-12-07T23:44:46.367Z,19.31
2018-12-07T23:50:41.304Z,13.64
2018-12-07T23:56:36.287Z,12.09
